sensor_id;sensor_type;location;lat;lon;timestamp;P1;durP1;ratioP1;P2;durP2;ratioP2
20124;SDS011;10223;50.862;4.360;2023-03-24T00:00:46;5.37;;;2.27;;
20124;SDS011;10223;50.862;4.360;2023-03-24T00:03:13;5.20;;;2.67;;
20124;SDS011;10223;50.862;4.360;2023-03-24T00:05:43;5.40;;;1.93;;
20124;SDS011;10223;50.862;4.360;2023-03-24T00:08:10;7.00;;;2.20;;
20124;SDS011;10223;50.862;4.360;2023-03-24T00:10:37;4.20;;;2.10;;
20124;SDS011;10223;50.862;4.360;2023-03-24T00:13:04;4.13;;;1.83;;
20124;SDS011;10223;50.862;4.360;2023-03-24T00:15:31;5.90;;;1.93;;
20124;SDS011;10223;50.862;4.360;2023-03-24T00:17:58;4.17;;;2.20;;
20124;SDS011;10223;50.862;4.360;2023-03-24T00:20:25;2.73;;;1.87;;
20124;SDS011;10223;50.862;4.360;2023-03-24T00:22:54;4.17;;;1.70;;
20124;SDS011;10223;50.862;4.360;2023-03-24T00:25:23;4.53;;;2.17;;
20124;SDS011;10223;50.862;4.360;2023-03-24T00:27:53;3.93;;;2.10;;
20124;SDS011;10223;50.862;4.360;2023-03-24T00:30:20;4.57;;;1.83;;
20124;SDS011;10223;50.862;4.360;2023-03-24T00:32:49;3.07;;;1.77;;
20124;SDS011;10223;50.862;4.360;2023-03-24T00:35:16;3.93;;;1.93;;
20124;SDS011;10223;50.862;4.360;2023-03-24T00:37:43;2.80;;;1.90;;
20124;SDS011;10223;50.862;4.360;2023-03-24T00:40:13;4.03;;;1.70;;
20124;SDS011;10223;50.862;4.360;2023-03-24T00:42:43;11.37;;;2.20;;
20124;SDS011;10223;50.862;4.360;2023-03-24T00:45:12;4.93;;;2.00;;
20124;SDS011;10223;50.862;4.360;2023-03-24T00:47:40;2.93;;;1.83;;
20124;SDS011;10223;50.862;4.360;2023-03-24T00:50:10;3.43;;;1.83;;
20124;SDS011;10223;50.862;4.360;2023-03-24T00:52:39;6.30;;;2.00;;
20124;SDS011;10223;50.862;4.360;2023-03-24T00:55:08;2.43;;;1.40;;
20124;SDS011;10223;50.862;4.360;2023-03-24T00:57:39;3.77;;;2.20;;
20124;SDS011;10223;50.862;4.360;2023-03-24T01:00:14;3.30;;;1.73;;
20124;SDS011;10223;50.862;4.360;2023-03-24T01:02:43;2.33;;;1.70;;
20124;SDS011;10223;50.862;4.360;2023-03-24T01:05:11;3.60;;;1.80;;
20124;SDS011;10223;50.862;4.360;2023-03-24T01:07:41;6.90;;;2.80;;
20124;SDS011;10223;50.862;4.360;2023-03-24T01:10:10;3.53;;;2.00;;
20124;SDS011;10223;50.862;4.360;2023-03-24T01:12:39;6.83;;;2.67;;
20124;SDS011;10223;50.862;4.360;2023-03-24T01:15:07;9.73;;;4.73;;
20124;SDS011;10223;50.862;4.360;2023-03-24T01:17:46;4.23;;;1.90;;
20124;SDS011;10223;50.862;4.360;2023-03-24T01:20:13;4.50;;;1.70;;
20124;SDS011;10223;50.862;4.360;2023-03-24T01:22:41;4.03;;;1.80;;
20124;SDS011;10223;50.862;4.360;2023-03-24T01:25:10;4.40;;;2.10;;
20124;SDS011;10223;50.862;4.360;2023-03-24T01:27:42;2.57;;;1.60;;
20124;SDS011;10223;50.862;4.360;2023-03-24T01:30:10;6.10;;;2.70;;
20124;SDS011;10223;50.862;4.360;2023-03-24T01:32:39;5.00;;;2.17;;
20124;SDS011;10223;50.862;4.360;2023-03-24T01:35:06;3.93;;;2.07;;
20124;SDS011;10223;50.862;4.360;2023-03-24T01:37:33;3.20;;;1.70;;
20124;SDS011;10223;50.862;4.360;2023-03-24T01:40:00;5.43;;;2.00;;
20124;SDS011;10223;50.862;4.360;2023-03-24T01:42:31;2.57;;;1.50;;
20124;SDS011;10223;50.862;4.360;2023-03-24T01:45:00;3.13;;;1.50;;
20124;SDS011;10223;50.862;4.360;2023-03-24T01:47:47;5.07;;;2.33;;
20124;SDS011;10223;50.862;4.360;2023-03-24T01:50:14;6.30;;;2.03;;
20124;SDS011;10223;50.862;4.360;2023-03-24T01:52:42;4.00;;;2.17;;
20124;SDS011;10223;50.862;4.360;2023-03-24T01:55:10;4.20;;;1.70;;
20124;SDS011;10223;50.862;4.360;2023-03-24T01:57:43;4.90;;;1.97;;
20124;SDS011;10223;50.862;4.360;2023-03-24T02:00:15;3.17;;;2.20;;
20124;SDS011;10223;50.862;4.360;2023-03-24T02:02:45;5.93;;;2.57;;
20124;SDS011;10223;50.862;4.360;2023-03-24T02:05:18;4.20;;;1.93;;
20124;SDS011;10223;50.862;4.360;2023-03-24T02:07:49;3.37;;;1.73;;
20124;SDS011;10223;50.862;4.360;2023-03-24T02:10:19;4.97;;;1.80;;
20124;SDS011;10223;50.862;4.360;2023-03-24T02:12:48;3.57;;;1.50;;
20124;SDS011;10223;50.862;4.360;2023-03-24T02:15:17;2.43;;;1.27;;
20124;SDS011;10223;50.862;4.360;2023-03-24T02:17:49;5.33;;;1.60;;
20124;SDS011;10223;50.862;4.360;2023-03-24T02:20:27;3.67;;;1.67;;
20124;SDS011;10223;50.862;4.360;2023-03-24T02:26:20;2.43;;;0.90;;
20124;SDS011;10223;50.862;4.360;2023-03-24T02:29:17;2.07;;;1.10;;
20124;SDS011;10223;50.862;4.360;2023-03-24T02:32:02;3.17;;;0.90;;
20124;SDS011;10223;50.862;4.360;2023-03-24T02:37:45;2.43;;;0.97;;
20124;SDS011;10223;50.862;4.360;2023-03-24T02:40:33;8.80;;;1.10;;
20124;SDS011;10223;50.862;4.360;2023-03-24T02:43:05;2.07;;;0.60;;
20124;SDS011;10223;50.862;4.360;2023-03-24T02:45:43;2.60;;;0.90;;
20124;SDS011;10223;50.862;4.360;2023-03-24T02:48:19;3.57;;;0.63;;
20124;SDS011;10223;50.862;4.360;2023-03-24T02:50:53;3.40;;;0.77;;
20124;SDS011;10223;50.862;4.360;2023-03-24T02:53:28;4.30;;;0.80;;
20124;SDS011;10223;50.862;4.360;2023-03-24T02:56:00;2.50;;;0.90;;
20124;SDS011;10223;50.862;4.360;2023-03-24T02:58:34;4.37;;;0.80;;
20124;SDS011;10223;50.862;4.360;2023-03-24T03:01:05;5.27;;;0.60;;
20124;SDS011;10223;50.862;4.360;2023-03-24T03:03:38;3.07;;;0.87;;
20124;SDS011;10223;50.862;4.360;2023-03-24T03:06:11;2.13;;;0.77;;
20124;SDS011;10223;50.862;4.360;2023-03-24T03:08:41;2.30;;;0.87;;
20124;SDS011;10223;50.862;4.360;2023-03-24T03:11:14;5.93;;;1.00;;
20124;SDS011;10223;50.862;4.360;2023-03-24T03:13:42;4.97;;;0.83;;
20124;SDS011;10223;50.862;4.360;2023-03-24T03:16:17;4.27;;;1.17;;
20124;SDS011;10223;50.862;4.360;2023-03-24T03:18:50;6.47;;;1.10;;
20124;SDS011;10223;50.862;4.360;2023-03-24T03:21:22;5.17;;;1.10;;
20124;SDS011;10223;50.862;4.360;2023-03-24T03:23:53;4.17;;;1.00;;
20124;SDS011;10223;50.862;4.360;2023-03-24T03:26:24;7.13;;;1.40;;
20124;SDS011;10223;50.862;4.360;2023-03-24T03:28:57;7.53;;;0.93;;
20124;SDS011;10223;50.862;4.360;2023-03-24T03:31:30;7.97;;;1.27;;
20124;SDS011;10223;50.862;4.360;2023-03-24T03:34:03;7.33;;;1.10;;
20124;SDS011;10223;50.862;4.360;2023-03-24T03:36:37;8.77;;;1.10;;
20124;SDS011;10223;50.862;4.360;2023-03-24T03:39:12;5.60;;;1.13;;
20124;SDS011;10223;50.862;4.360;2023-03-24T03:41:46;8.20;;;1.10;;
20124;SDS011;10223;50.862;4.360;2023-03-24T03:44:13;4.17;;;1.20;;
20124;SDS011;10223;50.862;4.360;2023-03-24T03:46:40;7.53;;;1.33;;
20124;SDS011;10223;50.862;4.360;2023-03-24T03:49:08;12.13;;;1.53;;
20124;SDS011;10223;50.862;4.360;2023-03-24T03:51:35;6.30;;;1.20;;
20124;SDS011;10223;50.862;4.360;2023-03-24T03:54:03;6.73;;;1.23;;
20124;SDS011;10223;50.862;4.360;2023-03-24T03:56:34;7.03;;;1.30;;
20124;SDS011;10223;50.862;4.360;2023-03-24T03:59:04;9.33;;;2.13;;
20124;SDS011;10223;50.862;4.360;2023-03-24T04:01:31;10.83;;;1.57;;
20124;SDS011;10223;50.862;4.360;2023-03-24T04:04:09;6.57;;;1.33;;
20124;SDS011;10223;50.862;4.360;2023-03-24T04:06:52;6.63;;;1.47;;
20124;SDS011;10223;50.862;4.360;2023-03-24T04:09:34;7.17;;;1.97;;
20124;SDS011;10223;50.862;4.360;2023-03-24T04:12:12;8.30;;;1.40;;
20124;SDS011;10223;50.862;4.360;2023-03-24T04:14:59;10.50;;;1.47;;
20124;SDS011;10223;50.862;4.360;2023-03-24T04:17:49;4.43;;;1.10;;
20124;SDS011;10223;50.862;4.360;2023-03-24T04:20:28;8.47;;;1.67;;
20124;SDS011;10223;50.862;4.360;2023-03-24T04:23:03;8.07;;;1.80;;
20124;SDS011;10223;50.862;4.360;2023-03-24T04:25:40;9.37;;;1.60;;
20124;SDS011;10223;50.862;4.360;2023-03-24T04:28:16;14.87;;;2.77;;
20124;SDS011;10223;50.862;4.360;2023-03-24T04:30:52;5.73;;;1.53;;
20124;SDS011;10223;50.862;4.360;2023-03-24T04:33:26;8.73;;;1.70;;
20124;SDS011;10223;50.862;4.360;2023-03-24T04:35:59;8.53;;;1.60;;
20124;SDS011;10223;50.862;4.360;2023-03-24T04:38:42;16.37;;;2.10;;
20124;SDS011;10223;50.862;4.360;2023-03-24T04:41:14;10.47;;;2.20;;
20124;SDS011;10223;50.862;4.360;2023-03-24T04:43:43;11.20;;;1.80;;
20124;SDS011;10223;50.862;4.360;2023-03-24T04:46:13;14.87;;;2.20;;
20124;SDS011;10223;50.862;4.360;2023-03-24T04:48:41;5.43;;;1.57;;
20124;SDS011;10223;50.862;4.360;2023-03-24T04:51:10;7.43;;;1.70;;
20124;SDS011;10223;50.862;4.360;2023-03-24T04:53:37;10.87;;;1.80;;
20124;SDS011;10223;50.862;4.360;2023-03-24T04:56:06;12.97;;;1.77;;
20124;SDS011;10223;50.862;4.360;2023-03-24T04:58:51;15.33;;;2.30;;
20124;SDS011;10223;50.862;4.360;2023-03-24T05:01:19;10.40;;;2.33;;
20124;SDS011;10223;50.862;4.360;2023-03-24T05:03:46;14.63;;;2.93;;
20124;SDS011;10223;50.862;4.360;2023-03-24T05:06:14;13.23;;;2.00;;
20124;SDS011;10223;50.862;4.360;2023-03-24T05:08:42;10.17;;;2.07;;
20124;SDS011;10223;50.862;4.360;2023-03-24T05:11:09;9.63;;;1.77;;
20124;SDS011;10223;50.862;4.360;2023-03-24T05:13:36;14.30;;;3.03;;
20124;SDS011;10223;50.862;4.360;2023-03-24T05:16:03;17.23;;;2.80;;
20124;SDS011;10223;50.862;4.360;2023-03-24T05:18:32;15.07;;;2.50;;
20124;SDS011;10223;50.862;4.360;2023-03-24T05:20:58;11.43;;;2.17;;
20124;SDS011;10223;50.862;4.360;2023-03-24T05:23:26;11.83;;;2.67;;
20124;SDS011;10223;50.862;4.360;2023-03-24T05:25:53;10.33;;;2.70;;
20124;SDS011;10223;50.862;4.360;2023-03-24T05:28:20;15.23;;;2.27;;
20124;SDS011;10223;50.862;4.360;2023-03-24T05:30:47;9.60;;;2.40;;
20124;SDS011;10223;50.862;4.360;2023-03-24T05:33:13;11.03;;;2.50;;
20124;SDS011;10223;50.862;4.360;2023-03-24T05:35:42;17.80;;;2.87;;
20124;SDS011;10223;50.862;4.360;2023-03-24T05:38:09;9.40;;;2.03;;
20124;SDS011;10223;50.862;4.360;2023-03-24T05:40:36;13.80;;;2.03;;
20124;SDS011;10223;50.862;4.360;2023-03-24T05:43:03;9.70;;;2.07;;
20124;SDS011;10223;50.862;4.360;2023-03-24T05:45:32;9.97;;;2.50;;
20124;SDS011;10223;50.862;4.360;2023-03-24T05:47:59;13.47;;;2.73;;
20124;SDS011;10223;50.862;4.360;2023-03-24T05:50:26;10.37;;;2.50;;
20124;SDS011;10223;50.862;4.360;2023-03-24T05:52:55;10.57;;;2.00;;
20124;SDS011;10223;50.862;4.360;2023-03-24T05:55:22;8.93;;;2.10;;
20124;SDS011;10223;50.862;4.360;2023-03-24T05:57:49;9.77;;;1.97;;
20124;SDS011;10223;50.862;4.360;2023-03-24T06:00:18;19.53;;;2.10;;
20124;SDS011;10223;50.862;4.360;2023-03-24T06:02:47;8.97;;;2.00;;
20124;SDS011;10223;50.862;4.360;2023-03-24T06:05:14;7.53;;;1.40;;
20124;SDS011;10223;50.862;4.360;2023-03-24T06:07:42;16.57;;;2.00;;
20124;SDS011;10223;50.862;4.360;2023-03-24T06:10:10;16.90;;;2.13;;
20124;SDS011;10223;50.862;4.360;2023-03-24T06:12:38;11.80;;;2.53;;
20124;SDS011;10223;50.862;4.360;2023-03-24T06:15:06;17.90;;;2.17;;
20124;SDS011;10223;50.862;4.360;2023-03-24T06:17:34;18.37;;;2.67;;
20124;SDS011;10223;50.862;4.360;2023-03-24T06:20:02;7.67;;;1.93;;
20124;SDS011;10223;50.862;4.360;2023-03-24T06:22:38;9.97;;;1.83;;
20124;SDS011;10223;50.862;4.360;2023-03-24T06:25:05;14.37;;;2.30;;
20124;SDS011;10223;50.862;4.360;2023-03-24T06:27:35;14.97;;;2.03;;
20124;SDS011;10223;50.862;4.360;2023-03-24T06:30:02;17.77;;;2.20;;
20124;SDS011;10223;50.862;4.360;2023-03-24T06:32:32;12.50;;;2.20;;
20124;SDS011;10223;50.862;4.360;2023-03-24T06:34:59;12.03;;;2.30;;
20124;SDS011;10223;50.862;4.360;2023-03-24T06:37:26;9.83;;;1.80;;
20124;SDS011;10223;50.862;4.360;2023-03-24T06:39:53;12.93;;;1.50;;
20124;SDS011;10223;50.862;4.360;2023-03-24T06:42:20;15.47;;;2.27;;
20124;SDS011;10223;50.862;4.360;2023-03-24T06:44:49;11.27;;;2.20;;
20124;SDS011;10223;50.862;4.360;2023-03-24T06:47:16;13.10;;;2.67;;
20124;SDS011;10223;50.862;4.360;2023-03-24T06:49:43;10.37;;;1.93;;
20124;SDS011;10223;50.862;4.360;2023-03-24T06:52:10;16.73;;;2.30;;
20124;SDS011;10223;50.862;4.360;2023-03-24T06:54:37;13.83;;;2.47;;
20124;SDS011;10223;50.862;4.360;2023-03-24T06:57:04;13.77;;;1.87;;
20124;SDS011;10223;50.862;4.360;2023-03-24T06:59:32;16.17;;;2.77;;
20124;SDS011;10223;50.862;4.360;2023-03-24T07:02:00;14.53;;;2.30;;
20124;SDS011;10223;50.862;4.360;2023-03-24T07:04:27;14.03;;;2.30;;
20124;SDS011;10223;50.862;4.360;2023-03-24T07:07:00;14.83;;;2.37;;
20124;SDS011;10223;50.862;4.360;2023-03-24T07:09:28;10.43;;;2.77;;
20124;SDS011;10223;50.862;4.360;2023-03-24T07:11:55;9.63;;;2.30;;
20124;SDS011;10223;50.862;4.360;2023-03-24T07:14:22;10.43;;;2.00;;
20124;SDS011;10223;50.862;4.360;2023-03-24T07:16:50;13.93;;;2.40;;
20124;SDS011;10223;50.862;4.360;2023-03-24T07:19:19;9.47;;;2.50;;
20124;SDS011;10223;50.862;4.360;2023-03-24T07:21:46;10.53;;;2.33;;
20124;SDS011;10223;50.862;4.360;2023-03-24T07:24:14;13.83;;;1.93;;
20124;SDS011;10223;50.862;4.360;2023-03-24T07:26:41;10.90;;;2.23;;
20124;SDS011;10223;50.862;4.360;2023-03-24T07:29:08;12.13;;;2.27;;
20124;SDS011;10223;50.862;4.360;2023-03-24T07:31:35;15.67;;;2.53;;
20124;SDS011;10223;50.862;4.360;2023-03-24T07:34:03;11.33;;;1.90;;
20124;SDS011;10223;50.862;4.360;2023-03-24T07:36:31;10.90;;;2.03;;
20124;SDS011;10223;50.862;4.360;2023-03-24T07:38:58;8.47;;;2.20;;
20124;SDS011;10223;50.862;4.360;2023-03-24T07:41:26;8.27;;;2.20;;
20124;SDS011;10223;50.862;4.360;2023-03-24T07:43:53;12.73;;;2.70;;
20124;SDS011;10223;50.862;4.360;2023-03-24T07:46:20;15.83;;;2.27;;
20124;SDS011;10223;50.862;4.360;2023-03-24T07:48:47;11.93;;;2.53;;
20124;SDS011;10223;50.862;4.360;2023-03-24T07:51:14;13.50;;;2.43;;
20124;SDS011;10223;50.862;4.360;2023-03-24T07:53:45;13.50;;;2.87;;
20124;SDS011;10223;50.862;4.360;2023-03-24T07:56:12;8.80;;;2.30;;
20124;SDS011;10223;50.862;4.360;2023-03-24T07:58:39;16.90;;;2.87;;
20124;SDS011;10223;50.862;4.360;2023-03-24T08:01:06;10.83;;;2.20;;
20124;SDS011;10223;50.862;4.360;2023-03-24T08:03:34;18.23;;;2.33;;
20124;SDS011;10223;50.862;4.360;2023-03-24T08:06:01;11.50;;;2.70;;
20124;SDS011;10223;50.862;4.360;2023-03-24T08:08:28;9.30;;;2.27;;
20124;SDS011;10223;50.862;4.360;2023-03-24T08:10:57;12.67;;;2.30;;
20124;SDS011;10223;50.862;4.360;2023-03-24T08:13:24;12.57;;;2.13;;
20124;SDS011;10223;50.862;4.360;2023-03-24T08:15:51;9.87;;;1.80;;
20124;SDS011;10223;50.862;4.360;2023-03-24T08:18:18;17.67;;;2.07;;
20124;SDS011;10223;50.862;4.360;2023-03-24T08:20:46;11.97;;;1.87;;
20124;SDS011;10223;50.862;4.360;2023-03-24T08:23:13;6.90;;;1.90;;
20124;SDS011;10223;50.862;4.360;2023-03-24T08:25:40;6.93;;;1.73;;
20124;SDS011;10223;50.862;4.360;2023-03-24T08:28:08;11.13;;;2.47;;
20124;SDS011;10223;50.862;4.360;2023-03-24T08:30:35;16.93;;;2.77;;
20124;SDS011;10223;50.862;4.360;2023-03-24T08:33:03;19.80;;;2.70;;
20124;SDS011;10223;50.862;4.360;2023-03-24T08:35:31;17.80;;;1.93;;
20124;SDS011;10223;50.862;4.360;2023-03-24T08:38:03;14.97;;;2.33;;
20124;SDS011;10223;50.862;4.360;2023-03-24T08:40:30;12.43;;;2.20;;
20124;SDS011;10223;50.862;4.360;2023-03-24T08:42:59;14.93;;;2.37;;
20124;SDS011;10223;50.862;4.360;2023-03-24T08:45:29;13.97;;;1.70;;
20124;SDS011;10223;50.862;4.360;2023-03-24T08:47:58;8.80;;;1.90;;
20124;SDS011;10223;50.862;4.360;2023-03-24T08:50:27;16.57;;;2.77;;
20124;SDS011;10223;50.862;4.360;2023-03-24T08:52:55;17.57;;;2.67;;
20124;SDS011;10223;50.862;4.360;2023-03-24T08:55:23;11.77;;;1.97;;
20124;SDS011;10223;50.862;4.360;2023-03-24T08:57:50;8.33;;;2.40;;
20124;SDS011;10223;50.862;4.360;2023-03-24T09:00:18;12.73;;;2.10;;
20124;SDS011;10223;50.862;4.360;2023-03-24T09:02:48;16.13;;;2.30;;
20124;SDS011;10223;50.862;4.360;2023-03-24T09:05:18;8.70;;;1.90;;
20124;SDS011;10223;50.862;4.360;2023-03-24T09:07:45;11.07;;;1.83;;
20124;SDS011;10223;50.862;4.360;2023-03-24T09:10:13;7.60;;;2.17;;
20124;SDS011;10223;50.862;4.360;2023-03-24T09:12:41;17.03;;;2.57;;
20124;SDS011;10223;50.862;4.360;2023-03-24T09:15:10;17.17;;;2.60;;
20124;SDS011;10223;50.862;4.360;2023-03-24T09:17:38;13.13;;;2.43;;
20124;SDS011;10223;50.862;4.360;2023-03-24T09:20:07;8.03;;;1.47;;
20124;SDS011;10223;50.862;4.360;2023-03-24T09:22:37;9.27;;;2.20;;
20124;SDS011;10223;50.862;4.360;2023-03-24T09:25:04;13.77;;;1.97;;
20124;SDS011;10223;50.862;4.360;2023-03-24T09:27:32;7.43;;;1.93;;
20124;SDS011;10223;50.862;4.360;2023-03-24T09:29:59;10.63;;;2.20;;
20124;SDS011;10223;50.862;4.360;2023-03-24T09:32:26;11.73;;;1.80;;
20124;SDS011;10223;50.862;4.360;2023-03-24T09:34:53;11.43;;;2.03;;
20124;SDS011;10223;50.862;4.360;2023-03-24T09:37:22;11.97;;;2.13;;
20124;SDS011;10223;50.862;4.360;2023-03-24T09:39:49;10.40;;;1.70;;
20124;SDS011;10223;50.862;4.360;2023-03-24T09:42:19;17.07;;;2.60;;
20124;SDS011;10223;50.862;4.360;2023-03-24T09:44:50;15.67;;;2.07;;
20124;SDS011;10223;50.862;4.360;2023-03-24T09:47:23;8.17;;;1.90;;
20124;SDS011;10223;50.862;4.360;2023-03-24T09:49:53;9.60;;;2.03;;
20124;SDS011;10223;50.862;4.360;2023-03-24T09:52:26;8.03;;;1.60;;
20124;SDS011;10223;50.862;4.360;2023-03-24T09:54:59;8.97;;;2.40;;
20124;SDS011;10223;50.862;4.360;2023-03-24T09:57:28;7.37;;;1.63;;
20124;SDS011;10223;50.862;4.360;2023-03-24T10:00:00;9.03;;;2.27;;
20124;SDS011;10223;50.862;4.360;2023-03-24T10:02:34;11.00;;;2.67;;
20124;SDS011;10223;50.862;4.360;2023-03-24T10:05:05;8.43;;;1.67;;
20124;SDS011;10223;50.862;4.360;2023-03-24T10:07:41;13.53;;;2.00;;
20124;SDS011;10223;50.862;4.360;2023-03-24T10:10:15;12.17;;;1.90;;
20124;SDS011;10223;50.862;4.360;2023-03-24T10:12:48;8.83;;;1.23;;
20124;SDS011;10223;50.862;4.360;2023-03-24T10:15:17;14.97;;;2.53;;
20124;SDS011;10223;50.862;4.360;2023-03-24T10:17:53;13.10;;;1.90;;
20124;SDS011;10223;50.862;4.360;2023-03-24T10:20:27;11.37;;;2.33;;
20124;SDS011;10223;50.862;4.360;2023-03-24T10:23:04;16.07;;;2.20;;
20124;SDS011;10223;50.862;4.360;2023-03-24T10:25:43;8.00;;;2.00;;
20124;SDS011;10223;50.862;4.360;2023-03-24T10:28:17;9.93;;;2.10;;
20124;SDS011;10223;50.862;4.360;2023-03-24T10:30:46;12.90;;;2.40;;
20124;SDS011;10223;50.862;4.360;2023-03-24T10:33:15;11.00;;;2.10;;
20124;SDS011;10223;50.862;4.360;2023-03-24T10:35:45;7.07;;;2.13;;
20124;SDS011;10223;50.862;4.360;2023-03-24T10:38:20;15.23;;;2.20;;
20124;SDS011;10223;50.862;4.360;2023-03-24T10:40:48;10.30;;;2.00;;
20124;SDS011;10223;50.862;4.360;2023-03-24T10:43:15;13.43;;;1.90;;
20124;SDS011;10223;50.862;4.360;2023-03-24T10:45:46;14.80;;;2.40;;
20124;SDS011;10223;50.862;4.360;2023-03-24T10:51:00;12.70;;;1.70;;
20124;SDS011;10223;50.862;4.360;2023-03-24T10:53:29;13.03;;;1.80;;
20124;SDS011;10223;50.862;4.360;2023-03-24T10:55:57;7.67;;;2.40;;
20124;SDS011;10223;50.862;4.360;2023-03-24T10:58:27;9.20;;;1.77;;
20124;SDS011;10223;50.862;4.360;2023-03-24T11:01:00;5.90;;;1.87;;
20124;SDS011;10223;50.862;4.360;2023-03-24T11:03:29;6.93;;;1.73;;
20124;SDS011;10223;50.862;4.360;2023-03-24T11:05:58;9.23;;;2.07;;
20124;SDS011;10223;50.862;4.360;2023-03-24T11:08:27;10.90;;;2.23;;
20124;SDS011;10223;50.862;4.360;2023-03-24T11:11:01;8.23;;;2.23;;
20124;SDS011;10223;50.862;4.360;2023-03-24T11:13:39;13.53;;;2.30;;
20124;SDS011;10223;50.862;4.360;2023-03-24T11:16:09;11.63;;;2.50;;
20124;SDS011;10223;50.862;4.360;2023-03-24T11:18:50;14.50;;;2.33;;
20124;SDS011;10223;50.862;4.360;2023-03-24T11:21:20;15.73;;;1.70;;
20124;SDS011;10223;50.862;4.360;2023-03-24T11:23:49;15.27;;;2.33;;
20124;SDS011;10223;50.862;4.360;2023-03-24T11:26:17;7.57;;;1.67;;
20124;SDS011;10223;50.862;4.360;2023-03-24T11:28:46;8.33;;;2.10;;
20124;SDS011;10223;50.862;4.360;2023-03-24T11:31:20;10.27;;;1.57;;
20124;SDS011;10223;50.862;4.360;2023-03-24T11:33:50;10.23;;;2.13;;
20124;SDS011;10223;50.862;4.360;2023-03-24T11:36:38;10.37;;;1.93;;
20124;SDS011;10223;50.862;4.360;2023-03-24T11:39:14;9.17;;;2.03;;
20124;SDS011;10223;50.862;4.360;2023-03-24T11:41:49;9.30;;;2.10;;
20124;SDS011;10223;50.862;4.360;2023-03-24T11:44:19;9.60;;;1.93;;
20124;SDS011;10223;50.862;4.360;2023-03-24T11:46:47;10.20;;;1.97;;
20124;SDS011;10223;50.862;4.360;2023-03-24T11:49:18;13.23;;;2.20;;
20124;SDS011;10223;50.862;4.360;2023-03-24T11:51:50;7.67;;;1.93;;
20124;SDS011;10223;50.862;4.360;2023-03-24T11:54:22;9.67;;;2.00;;
20124;SDS011;10223;50.862;4.360;2023-03-24T11:56:53;10.13;;;1.80;;
20124;SDS011;10223;50.862;4.360;2023-03-24T11:59:27;7.90;;;1.60;;
20124;SDS011;10223;50.862;4.360;2023-03-24T12:02:01;10.77;;;1.83;;
20124;SDS011;10223;50.862;4.360;2023-03-24T12:04:40;11.83;;;2.17;;
20124;SDS011;10223;50.862;4.360;2023-03-24T12:10:41;20.17;;;2.07;;
20124;SDS011;10223;50.862;4.360;2023-03-24T12:13:18;14.40;;;1.83;;
20124;SDS011;10223;50.862;4.360;2023-03-24T12:15:55;11.27;;;1.80;;
20124;SDS011;10223;50.862;4.360;2023-03-24T12:18:36;16.07;;;2.30;;
20124;SDS011;10223;50.862;4.360;2023-03-24T12:21:28;8.87;;;2.17;;
20124;SDS011;10223;50.862;4.360;2023-03-24T12:24:08;30.60;;;3.03;;
20124;SDS011;10223;50.862;4.360;2023-03-24T12:26:47;11.73;;;2.07;;
20124;SDS011;10223;50.862;4.360;2023-03-24T12:29:25;16.63;;;2.33;;
20124;SDS011;10223;50.862;4.360;2023-03-24T12:32:12;8.63;;;1.77;;
20124;SDS011;10223;50.862;4.360;2023-03-24T12:37:56;15.93;;;2.50;;
20124;SDS011;10223;50.862;4.360;2023-03-24T12:40:38;12.73;;;2.03;;
20124;SDS011;10223;50.862;4.360;2023-03-24T12:43:28;7.10;;;1.50;;
20124;SDS011;10223;50.862;4.360;2023-03-24T12:46:02;15.10;;;2.20;;
20124;SDS011;10223;50.862;4.360;2023-03-24T12:48:47;9.93;;;1.83;;
20124;SDS011;10223;50.862;4.360;2023-03-24T12:51:30;7.53;;;1.73;;
20124;SDS011;10223;50.862;4.360;2023-03-24T12:54:11;8.03;;;1.40;;
20124;SDS011;10223;50.862;4.360;2023-03-24T12:56:49;8.80;;;1.60;;
20124;SDS011;10223;50.862;4.360;2023-03-24T12:59:21;8.57;;;1.40;;
20124;SDS011;10223;50.862;4.360;2023-03-24T13:01:57;7.07;;;1.40;;
20124;SDS011;10223;50.862;4.360;2023-03-24T13:04:34;5.70;;;1.03;;
20124;SDS011;10223;50.862;4.360;2023-03-24T13:07:06;4.53;;;0.93;;
20124;SDS011;10223;50.862;4.360;2023-03-24T13:09:35;10.87;;;1.30;;
20124;SDS011;10223;50.862;4.360;2023-03-24T13:12:11;10.80;;;1.97;;
20124;SDS011;10223;50.862;4.360;2023-03-24T13:14:47;5.00;;;1.83;;
20124;SDS011;10223;50.862;4.360;2023-03-24T13:17:17;5.83;;;0.93;;
20124;SDS011;10223;50.862;4.360;2023-03-24T13:19:47;5.40;;;1.23;;
20124;SDS011;10223;50.862;4.360;2023-03-24T13:22:16;11.40;;;1.33;;
20124;SDS011;10223;50.862;4.360;2023-03-24T13:24:45;12.80;;;1.60;;
20124;SDS011;10223;50.862;4.360;2023-03-24T13:27:14;10.43;;;1.20;;
20124;SDS011;10223;50.862;4.360;2023-03-24T13:30:01;33.83;;;2.37;;
20124;SDS011;10223;50.862;4.360;2023-03-24T13:32:39;6.50;;;1.50;;
20124;SDS011;10223;50.862;4.360;2023-03-24T13:35:11;7.63;;;1.60;;
20124;SDS011;10223;50.862;4.360;2023-03-24T13:37:44;4.87;;;1.03;;
20124;SDS011;10223;50.862;4.360;2023-03-24T13:40:18;3.60;;;1.57;;
20124;SDS011;10223;50.862;4.360;2023-03-24T13:42:48;6.90;;;1.67;;
20124;SDS011;10223;50.862;4.360;2023-03-24T13:50:59;7.03;;;1.80;;
20124;SDS011;10223;50.862;4.360;2023-03-24T13:53:30;7.50;;;1.40;;
20124;SDS011;10223;50.862;4.360;2023-03-24T13:56:00;9.33;;;1.87;;
20124;SDS011;10223;50.862;4.360;2023-03-24T13:58:43;3.93;;;1.10;;
20124;SDS011;10223;50.862;4.360;2023-03-24T14:01:18;6.80;;;1.70;;
20124;SDS011;10223;50.862;4.360;2023-03-24T14:06:51;9.43;;;1.50;;
20124;SDS011;10223;50.862;4.360;2023-03-24T14:09:20;7.93;;;1.40;;
20124;SDS011;10223;50.862;4.360;2023-03-24T14:11:48;6.93;;;1.33;;
20124;SDS011;10223;50.862;4.360;2023-03-24T14:14:33;9.83;;;1.87;;
20124;SDS011;10223;50.862;4.360;2023-03-24T14:17:05;6.40;;;1.40;;
20124;SDS011;10223;50.862;4.360;2023-03-24T14:19:38;11.37;;;1.60;;
20124;SDS011;10223;50.862;4.360;2023-03-24T14:22:13;9.07;;;1.33;;
20124;SDS011;10223;50.862;4.360;2023-03-24T14:24:41;7.63;;;2.00;;
20124;SDS011;10223;50.862;4.360;2023-03-24T14:27:21;4.57;;;1.50;;
20124;SDS011;10223;50.862;4.360;2023-03-24T14:30:00;6.67;;;2.07;;
20124;SDS011;10223;50.862;4.360;2023-03-24T14:32:37;11.00;;;1.90;;
20124;SDS011;10223;50.862;4.360;2023-03-24T14:35:16;8.63;;;1.83;;
20124;SDS011;10223;50.862;4.360;2023-03-24T14:37:48;8.83;;;2.93;;
20124;SDS011;10223;50.862;4.360;2023-03-24T14:40:22;9.23;;;1.97;;
20124;SDS011;10223;50.862;4.360;2023-03-24T14:42:53;10.33;;;2.37;;
20124;SDS011;10223;50.862;4.360;2023-03-24T14:48:30;6.43;;;1.38;;
20124;SDS011;10223;50.862;4.360;2023-03-24T14:54:00;9.67;;;1.33;;
20124;SDS011;10223;50.862;4.360;2023-03-24T14:56:32;7.93;;;1.40;;
20124;SDS011;10223;50.862;4.360;2023-03-24T14:59:02;6.20;;;1.20;;
20124;SDS011;10223;50.862;4.360;2023-03-24T15:01:34;7.00;;;1.83;;
20124;SDS011;10223;50.862;4.360;2023-03-24T15:04:03;4.80;;;1.00;;
20124;SDS011;10223;50.862;4.360;2023-03-24T15:06:32;3.37;;;0.93;;
20124;SDS011;10223;50.862;4.360;2023-03-24T15:09:09;4.50;;;0.90;;
20124;SDS011;10223;50.862;4.360;2023-03-24T15:11:37;3.80;;;0.70;;
20124;SDS011;10223;50.862;4.360;2023-03-24T15:14:05;2.80;;;0.90;;
20124;SDS011;10223;50.862;4.360;2023-03-24T15:16:50;3.53;;;0.90;;
20124;SDS011;10223;50.862;4.360;2023-03-24T15:19:20;3.90;;;0.80;;
20124;SDS011;10223;50.862;4.360;2023-03-24T15:21:57;1.95;;;0.60;;
20124;SDS011;10223;50.862;4.360;2023-03-24T15:24:29;3.03;;;0.73;;
20124;SDS011;10223;50.862;4.360;2023-03-24T15:27:21;3.30;;;0.75;;
20124;SDS011;10223;50.862;4.360;2023-03-24T15:29:54;6.17;;;1.00;;
20124;SDS011;10223;50.862;4.360;2023-03-24T15:32:23;3.55;;;1.30;;
20124;SDS011;10223;50.862;4.360;2023-03-24T15:34:57;3.88;;;1.30;;
20124;SDS011;10223;50.862;4.360;2023-03-24T15:37:29;4.25;;;0.80;;